Time;durP1;ratioP1;P1;durP2;ratioP2;P2;SDS_P1;SDS_P2;PMS_P1;PMS_P2;Temp;Humidity;BMP_temperature;BMP_pressure;BME280_temperature;BME280_humidity;BME280_pressure;Samples;Min_cycle;Max_cycle;Signal;HPM_P1;HPM_P2
2023/07/15 00:00:43;;;;;;;5.57;3.47;;;;;;;;;;4988958;28;20504;-60
2023/07/15 00:03:10;;;;;;;4.90;3.10;;;;;;;;;;4988854;28;20038;-60
2023/07/15 00:05:37;;;;;;;6.97;3.43;;;;;;;;;;4988562;28;20132;-60
2023/07/15 00:08:04;;;;;;;5.03;3.13;;;;;;;;;;4988946;28;20492;-60
2023/07/15 00:10:30;;;;;;;6.63;3.17;;;;;;;;;;4988835;28;20475;-60
2023/07/15 00:12:58;;;;;;;5.07;3.23;;;;;;;;;;4989017;28;20500;-60
2023/07/15 00:15:25;;;;;;;6.40;3.53;;;;;;;;;;4988699;28;20551;-60
2023/07/15 00:17:51;;;;;;;7.57;3.37;;;;;;;;;;4988421;28;20046;-60
2023/07/15 00:20:19;;;;;;;6.43;3.30;;;;;;;;;;4988729;28;20050;-60
2023/07/15 00:22:45;;;;;;;6.03;3.87;;;;;;;;;;4988561;28;20054;-60
2023/07/15 00:25:13;;;;;;;7.10;3.40;;;;;;;;;;4988783;28;20038;-60
2023/07/15 00:27:40;;;;;;;5.97;3.30;;;;;;;;;;4988058;28;20109;-61
2023/07/15 00:30:07;;;;;;;5.53;2.93;;;;;;;;;;4988666;28;20062;-60
2023/07/15 00:32:34;;;;;;;6.57;3.10;;;;;;;;;;4988669;28;20121;-60
2023/07/15 00:35:00;;;;;;;7.37;3.20;;;;;;;;;;4987774;28;20133;-60
2023/07/15 00:37:26;;;;;;;5.23;2.93;;;;;;;;;;4988519;28;20042;-60
2023/07/15 00:39:51;;;;;;;5.97;3.10;;;;;;;;;;4988586;28;20050;-60
2023/07/15 00:42:21;;;;;;;5.57;2.97;;;;;;;;;;4988351;28;20038;-60
2023/07/15 00:44:47;;;;;;;7.40;3.27;;;;;;;;;;4987083;28;20464;-60
2023/07/15 00:47:21;;;;;;;7.33;3.20;;;;;;;;;;4988101;28;20058;-60
2023/07/15 00:49:47;;;;;;;9.27;2.80;;;;;;;;;;4988000;28;20047;-60
2023/07/15 00:52:14;;;;;;;5.57;2.83;;;;;;;;;;4988505;28;20515;-60
2023/07/15 00:54:42;;;;;;;7.90;2.83;;;;;;;;;;4988559;28;20069;-60
2023/07/15 00:57:12;;;;;;;5.20;2.90;;;;;;;;;;4987963;28;20061;-60
2023/07/15 00:59:39;;;;;;;5.33;2.97;;;;;;;;;;4988663;28;20130;-60
2023/07/15 01:02:05;;;;;;;6.03;2.63;;;;;;;;;;4988410;28;20038;-60
2023/07/15 01:04:31;;;;;;;6.80;3.03;;;;;;;;;;4988268;28;20046;-60
2023/07/15 01:06:57;;;;;;;6.20;3.27;;;;;;;;;;4988110;28;20456;-60
2023/07/15 01:09:24;;;;;;;7.80;3.13;;;;;;;;;;4990898;28;20432;-60
2023/07/15 01:11:50;;;;;;;6.23;2.73;;;;;;;;;;4991858;28;20058;-61
2023/07/15 01:14:16;;;;;;;6.93;2.73;;;;;;;;;;4991541;28;20049;-61
2023/07/15 01:16:42;;;;;;;7.23;2.30;;;;;;;;;;4991776;28;20058;-60
2023/07/15 01:19:09;;;;;;;5.93;1.97;;;;;;;;;;4991847;28;20084;-60
2023/07/15 01:21:36;;;;;;;7.63;2.90;;;;;;;;;;4992080;28;20505;-60
2023/07/15 01:24:03;;;;;;;6.47;2.23;;;;;;;;;;4991632;28;20050;-60
2023/07/15 01:26:31;;;;;;;6.03;2.23;;;;;;;;;;4991126;28;20420;-60
2023/07/15 01:28:57;;;;;;;7.80;2.60;;;;;;;;;;4991684;28;20479;-60
2023/07/15 01:31:23;;;;;;;4.57;2.10;;;;;;;;;;4990930;28;20054;-60
2023/07/15 01:33:49;;;;;;;5.83;2.50;;;;;;;;;;4991683;28;20073;-60
2023/07/15 01:36:15;;;;;;;8.27;2.57;;;;;;;;;;4991265;28;20042;-60
2023/07/15 01:38:41;;;;;;;6.17;2.70;;;;;;;;;;4991559;28;20042;-60
2023/07/15 01:41:07;;;;;;;7.13;2.50;;;;;;;;;;4991300;28;20054;-60
2023/07/15 01:43:33;;;;;;;7.27;2.70;;;;;;;;;;4991247;28;20053;-60
2023/07/15 01:45:59;;;;;;;4.90;2.67;;;;;;;;;;4991185;28;20492;-60
2023/07/15 01:48:26;;;;;;;5.63;2.60;;;;;;;;;;4991049;28;20054;-60
2023/07/15 01:50:52;;;;;;;6.30;2.53;;;;;;;;;;4990483;28;20042;-60
2023/07/15 01:53:18;;;;;;;7.40;2.63;;;;;;;;;;4991520;28;20042;-59
2023/07/15 01:55:44;;;;;;;6.00;2.33;;;;;;;;;;4990791;28;20061;-60
2023/07/15 01:58:10;;;;;;;6.53;2.33;;;;;;;;;;4990620;28;20116;-60
2023/07/15 02:00:36;;;;;;;6.33;2.57;;;;;;;;;;4991104;28;20050;-60
2023/07/15 02:03:02;;;;;;;6.60;2.50;;;;;;;;;;4990619;28;20624;-60
2023/07/15 02:05:28;;;;;;;6.23;2.40;;;;;;;;;;4991072;28;20046;-60
2023/07/15 02:07:55;;;;;;;5.77;2.67;;;;;;;;;;4990492;28;20058;-60
2023/07/15 02:10:22;;;;;;;7.03;2.97;;;;;;;;;;4990995;28;20082;-60
2023/07/15 02:12:48;;;;;;;8.13;2.73;;;;;;;;;;4990724;28;20588;-60
2023/07/15 02:15:14;;;;;;;4.90;2.30;;;;;;;;;;4990027;28;20150;-60
2023/07/15 02:17:40;;;;;;;7.10;2.33;;;;;;;;;;4990737;28;20057;-61
2023/07/15 02:20:07;;;;;;;6.23;2.30;;;;;;;;;;4990305;28;20050;-60
2023/07/15 02:22:33;;;;;;;5.93;2.03;;;;;;;;;;4990660;28;20540;-60
2023/07/15 02:25:00;;;;;;;5.47;2.00;;;;;;;;;;4990532;28;20506;-60
2023/07/15 02:27:26;;;;;;;4.13;2.07;;;;;;;;;;4990091;28;20050;-60
2023/07/15 02:29:52;;;;;;;8.00;2.60;;;;;;;;;;4990065;28;20051;-60
2023/07/15 02:32:39;;;;;;;5.47;2.63;;;;;;;;;;4990432;28;20489;-61
2023/07/15 02:35:08;;;;;;;3.77;2.20;;;;;;;;;;4989966;28;20398;-60
2023/07/15 02:37:34;;;;;;;4.30;2.30;;;;;;;;;;4990337;28;20096;-60
2023/07/15 02:40:00;;;;;;;5.33;2.37;;;;;;;;;;4990363;28;20046;-60
2023/07/15 02:42:26;;;;;;;6.23;2.20;;;;;;;;;;4990041;28;20042;-60
2023/07/15 02:44:52;;;;;;;4.17;1.90;;;;;;;;;;4989930;28;20043;-60
2023/07/15 02:47:18;;;;;;;7.43;2.13;;;;;;;;;;4990000;28;20050;-60
2023/07/15 02:49:44;;;;;;;5.47;2.17;;;;;;;;;;4989566;28;20295;-60
2023/07/15 02:52:10;;;;;;;3.77;2.00;;;;;;;;;;4990055;28;20050;-60
2023/07/15 02:54:36;;;;;;;7.57;1.93;;;;;;;;;;4989737;28;20058;-60
2023/07/15 02:57:02;;;;;;;5.97;2.20;;;;;;;;;;4989532;28;20181;-60
2023/07/15 02:59:28;;;;;;;3.60;2.03;;;;;;;;;;4972459;28;20125;-60
2023/07/15 03:01:54;;;;;;;9.60;2.10;;;;;;;;;;4989385;28;20494;-60
2023/07/15 03:04:20;;;;;;;4.73;1.83;;;;;;;;;;4990045;28;20516;-60
2023/07/15 03:06:46;;;;;;;7.03;1.90;;;;;;;;;;4989803;28;20125;-60
2023/07/15 03:09:12;;;;;;;6.53;1.70;;;;;;;;;;4989415;28;20362;-60
2023/07/15 03:11:38;;;;;;;8.03;2.23;;;;;;;;;;4989359;28;20050;-60
2023/07/15 03:14:04;;;;;;;5.40;2.00;;;;;;;;;;4989655;28;20129;-60
2023/07/15 03:16:30;;;;;;;3.83;1.93;;;;;;;;;;4989619;28;20504;-60
2023/07/15 03:18:56;;;;;;;7.30;2.40;;;;;;;;;;4989623;28;20096;-60
2023/07/15 03:21:22;;;;;;;9.57;2.60;;;;;;;;;;4989591;28;20060;-60
2023/07/15 03:23:48;;;;;;;4.20;2.20;;;;;;;;;;4988896;28;20053;-60
2023/07/15 03:26:14;;;;;;;3.57;2.17;;;;;;;;;;4989536;28;20166;-60
2023/07/15 03:28:40;;;;;;;7.80;1.93;;;;;;;;;;4989369;28;20141;-60
2023/07/15 03:31:06;;;;;;;4.77;2.50;;;;;;;;;;4988912;28;20054;-60
2023/07/15 03:33:32;;;;;;;5.47;2.27;;;;;;;;;;4988865;28;20530;-60
2023/07/15 03:36:01;;;;;;;6.77;2.30;;;;;;;;;;4989061;28;20042;-60
2023/07/15 03:38:29;;;;;;;6.07;2.13;;;;;;;;;;4989182;28;20046;-60
2023/07/15 03:40:55;;;;;;;5.13;2.17;;;;;;;;;;4988880;28;20049;-60
2023/07/15 03:43:21;;;;;;;4.70;2.20;;;;;;;;;;4989107;28;20652;-60
2023/07/15 03:45:47;;;;;;;4.30;1.97;;;;;;;;;;4988802;28;20129;-60
2023/07/15 03:48:13;;;;;;;8.10;2.27;;;;;;;;;;4988553;28;20050;-60
2023/07/15 03:50:39;;;;;;;7.73;2.40;;;;;;;;;;4988778;28;20043;-60
2023/07/15 03:53:05;;;;;;;4.83;2.30;;;;;;;;;;4988518;28;20508;-60
2023/07/15 03:55:31;;;;;;;5.50;2.47;;;;;;;;;;4988553;28;20046;-60
2023/07/15 03:57:57;;;;;;;7.83;2.50;;;;;;;;;;4988574;28;20050;-60
2023/07/15 04:00:23;;;;;;;6.43;2.53;;;;;;;;;;4988906;28;20058;-60
2023/07/15 04:02:53;;;;;;;8.90;2.40;;;;;;;;;;4988383;28;20124;-60
2023/07/15 04:05:19;;;;;;;5.73;2.00;;;;;;;;;;4988939;28;20078;-60
2023/07/15 04:07:45;;;;;;;3.87;1.80;;;;;;;;;;4988457;28;20570;-60
2023/07/15 04:10:11;;;;;;;4.90;1.97;;;;;;;;;;4988757;28;20416;-60
2023/07/15 04:12:38;;;;;;;8.37;3.00;;;;;;;;;;4988408;28;20520;-60
2023/07/15 04:15:04;;;;;;;7.53;2.33;;;;;;;;;;4988678;28;20054;-60
2023/07/15 04:17:30;;;;;;;9.60;2.30;;;;;;;;;;4988811;28;20050;-60
2023/07/15 04:19:56;;;;;;;6.67;2.50;;;;;;;;;;4988225;28;20038;-60
2023/07/15 04:22:22;;;;;;;13.67;2.93;;;;;;;;;;4988596;28;20038;-60
2023/07/15 04:24:48;;;;;;;6.83;2.10;;;;;;;;;;4988545;28;20065;-60
2023/07/15 04:27:14;;;;;;;6.80;2.53;;;;;;;;;;4988683;28;20055;-60
2023/07/15 04:29:40;;;;;;;8.97;2.33;;;;;;;;;;4988270;28;20046;-60
2023/07/15 04:32:07;;;;;;;7.03;2.23;;;;;;;;;;4988323;28;20054;-60
2023/07/15 04:34:32;;;;;;;4.50;2.33;;;;;;;;;;4988554;28;20056;-60
2023/07/15 04:36:58;;;;;;;5.93;2.37;;;;;;;;;;4988151;28;20121;-60
2023/07/15 04:39:27;;;;;;;5.47;2.30;;;;;;;;;;4988487;28;20042;-60
2023/07/15 04:41:53;;;;;;;7.07;2.30;;;;;;;;;;4988066;28;20133;-60
2023/07/15 04:44:19;;;;;;;6.90;2.67;;;;;;;;;;4991078;28;20197;-60
2023/07/15 04:46:45;;;;;;;5.03;2.27;;;;;;;;;;4991927;28;20050;-61
2023/07/15 04:49:12;;;;;;;6.63;2.37;;;;;;;;;;4991514;28;20043;-60
2023/07/15 04:51:38;;;;;;;6.63;2.90;;;;;;;;;;4991989;28;20054;-60
2023/07/15 04:54:04;;;;;;;5.40;2.40;;;;;;;;;;4991753;28;20397;-60
2023/07/15 04:56:30;;;;;;;3.57;2.10;;;;;;;;;;4991704;28;20133;-60
2023/07/15 04:58:56;;;;;;;5.87;2.30;;;;;;;;;;4991860;28;20478;-61
2023/07/15 05:01:23;;;;;;;5.03;2.00;;;;;;;;;;4991421;28;20504;-61
2023/07/15 05:03:49;;;;;;;7.50;2.50;;;;;;;;;;4992020;28;20050;-60
2023/07/15 05:06:15;;;;;;;5.27;2.40;;;;;;;;;;4991317;28;20085;-60
2023/07/15 05:08:42;;;;;;;8.87;2.90;;;;;;;;;;4991870;28;20417;-60
2023/07/15 05:11:08;;;;;;;5.10;2.27;;;;;;;;;;4991873;28;20057;-61
2023/07/15 05:13:34;;;;;;;9.00;2.93;;;;;;;;;;4991922;28;20046;-60
2023/07/15 05:16:00;;;;;;;8.63;2.80;;;;;;;;;;4991187;28;20492;-60
2023/07/15 05:18:26;;;;;;;6.73;2.67;;;;;;;;;;4991778;28;20046;-60
2023/07/15 05:20:52;;;;;;;7.47;2.70;;;;;;;;;;4991184;28;20097;-60
2023/07/15 05:23:18;;;;;;;5.80;2.50;;;;;;;;;;4991321;28;20038;-60
2023/07/15 05:25:44;;;;;;;7.50;3.10;;;;;;;;;;4991637;28;20053;-60
2023/07/15 05:28:10;;;;;;;4.13;1.87;;;;;;;;;;4991214;28;20050;-60
2023/07/15 05:30:37;;;;;;;6.37;2.33;;;;;;;;;;4991454;28;20043;-60
2023/07/15 05:33:03;;;;;;;7.40;2.77;;;;;;;;;;4990935;28;20046;-60
2023/07/15 05:35:29;;;;;;;6.27;2.60;;;;;;;;;;4991163;28;20209;-60
2023/07/15 05:37:55;;;;;;;7.53;2.50;;;;;;;;;;4991063;28;20233;-60
2023/07/15 05:40:21;;;;;;;8.33;2.43;;;;;;;;;;4991438;28;20046;-60
2023/07/15 05:42:47;;;;;;;16.13;3.13;;;;;;;;;;4991389;28;20042;-60
2023/07/15 05:45:13;;;;;;;4.97;2.50;;;;;;;;;;4990606;28;20488;-60
2023/07/15 05:47:39;;;;;;;4.37;2.37;;;;;;;;;;4990866;28;20042;-60
2023/07/15 05:50:06;;;;;;;11.90;2.47;;;;;;;;;;4990840;28;20049;-60
2023/07/15 05:52:32;;;;;;;7.67;2.30;;;;;;;;;;4990939;28;20043;-62
2023/07/15 05:54:58;;;;;;;7.87;2.50;;;;;;;;;;4989014;28;20105;-60
2023/07/15 05:57:24;;;;;;;4.03;2.07;;;;;;;;;;4990912;28;20054;-60
2023/07/15 05:59:51;;;;;;;4.57;2.27;;;;;;;;;;4990796;28;20120;-60
2023/07/15 06:02:17;;;;;;;5.13;2.30;;;;;;;;;;4990831;28;20042;-60
2023/07/15 06:04:43;;;;;;;7.07;2.33;;;;;;;;;;4990842;28;20544;-60
2023/07/15 06:07:09;;;;;;;5.47;2.40;;;;;;;;;;4990288;28;20623;-60
2023/07/15 06:09:35;;;;;;;4.23;2.10;;;;;;;;;;4990841;28;20566;-60
2023/07/15 06:12:02;;;;;;;8.27;2.70;;;;;;;;;;4990556;28;20504;-61
2023/07/15 06:14:28;;;;;;;4.53;2.43;;;;;;;;;;4990314;28;20054;-61
2023/07/15 06:16:54;;;;;;;3.67;2.10;;;;;;;;;;4990246;28;20053;-60
2023/07/15 06:19:20;;;;;;;5.67;2.60;;;;;;;;;;4990520;28;20138;-60
2023/07/15 06:21:46;;;;;;;9.07;2.53;;;;;;;;;;4990515;28;20042;-60
2023/07/15 06:24:13;;;;;;;5.00;2.20;;;;;;;;;;4990512;28;20505;-60
2023/07/15 06:26:39;;;;;;;6.57;2.63;;;;;;;;;;4990302;28;20125;-60
2023/07/15 06:29:05;;;;;;;8.00;2.70;;;;;;;;;;4989696;28;20098;-61
2023/07/15 06:31:31;;;;;;;9.00;2.20;;;;;;;;;;4990089;28;20042;-60
2023/07/15 06:33:57;;;;;;;9.60;2.53;;;;;;;;;;4990215;28;20544;-61
2023/07/15 06:36:23;;;;;;;5.23;2.43;;;;;;;;;;4989867;28;20042;-60
2023/07/15 06:38:49;;;;;;;7.33;2.50;;;;;;;;;;4989936;28;20094;-61
2023/07/15 06:41:15;;;;;;;7.70;2.30;;;;;;;;;;4990211;28;20046;-60
2023/07/15 06:43:41;;;;;;;7.27;2.23;;;;;;;;;;4989964;28;20466;-60
2023/07/15 06:46:07;;;;;;;10.40;2.67;;;;;;;;;;4989404;28;20053;-60
2023/07/15 06:48:33;;;;;;;4.13;2.13;;;;;;;;;;4990033;28;20149;-60
2023/07/15 06:50:59;;;;;;;7.23;2.60;;;;;;;;;;4989908;28;20050;-60
2023/07/15 06:53:25;;;;;;;4.37;2.83;;;;;;;;;;4989778;28;20042;-61
2023/07/15 06:55:52;;;;;;;5.60;2.03;;;;;;;;;;4989856;28;20058;-60
2023/07/15 06:58:18;;;;;;;7.00;2.27;;;;;;;;;;4989256;28;20052;-60
2023/07/15 07:00:44;;;;;;;6.97;2.47;;;;;;;;;;4989527;28;20477;-60
2023/07/15 07:03:10;;;;;;;9.77;2.17;;;;;;;;;;4989755;28;20057;-60
2023/07/15 07:05:36;;;;;;;5.03;2.40;;;;;;;;;;4989630;28;20054;-60
2023/07/15 07:08:02;;;;;;;8.50;3.27;;;;;;;;;;4989186;28;20042;-60
2023/07/15 07:10:28;;;;;;;6.63;2.17;;;;;;;;;;4989756;28;20049;-60
2023/07/15 07:12:54;;;;;;;8.00;3.00;;;;;;;;;;4989500;28;20046;-61
2023/07/15 07:15:20;;;;;;;5.20;2.20;;;;;;;;;;4989515;28;20042;-60
2023/07/15 07:17:46;;;;;;;6.47;2.33;;;;;;;;;;4990004;28;20456;-61
2023/07/15 07:20:12;;;;;;;7.20;2.27;;;;;;;;;;4989660;28;20067;-60
2023/07/15 07:22:38;;;;;;;4.33;2.10;;;;;;;;;;4989205;28;20046;-61
2023/07/15 07:25:05;;;;;;;3.07;1.90;;;;;;;;;;4989566;28;20053;-60
2023/07/15 07:27:31;;;;;;;5.60;2.00;;;;;;;;;;4989067;28;20452;-61
2023/07/15 07:30:00;;;;;;;8.67;2.53;;;;;;;;;;4989043;28;20046;-60
2023/07/15 07:32:26;;;;;;;5.80;2.53;;;;;;;;;;4989484;28;20153;-60
2023/07/15 07:34:52;;;;;;;7.53;2.20;;;;;;;;;;4989109;28;20050;-60
2023/07/15 07:37:18;;;;;;;4.27;2.23;;;;;;;;;;4988879;28;20049;-60
2023/07/15 07:39:44;;;;;;;6.90;2.50;;;;;;;;;;4989033;28;20051;-60
2023/07/15 07:42:10;;;;;;;5.23;2.13;;;;;;;;;;4989036;28;20093;-60
2023/07/15 07:44:36;;;;;;;5.63;2.07;;;;;;;;;;4988465;28;20052;-60
2023/07/15 07:47:02;;;;;;;6.30;2.30;;;;;;;;;;4988892;28;20152;-60
2023/07/15 07:49:28;;;;;;;7.73;2.00;;;;;;;;;;4988890;28;20082;-60
2023/07/15 07:51:54;;;;;;;5.10;2.10;;;;;;;;;;4989194;28;20089;-60
2023/07/15 07:54:20;;;;;;;4.97;2.07;;;;;;;;;;4989026;28;20551;-60
2023/07/15 07:56:46;;;;;;;5.77;2.37;;;;;;;;;;4988503;28;20206;-61
2023/07/15 07:59:12;;;;;;;6.43;2.08;;;;;;;;;;4988640;28;20038;-60
2023/07/15 08:01:39;;;;;;;3.65;1.80;;;;;;;;;;4989117;28;20138;-60
2023/07/15 08:04:05;;;;;;;4.78;1.75;;;;;;;;;;4988773;28;20138;-61
2023/07/15 08:06:31;;;;;;;5.47;2.15;;;;;;;;;;4988760;28;20129;-61
2023/07/15 08:08:57;;;;;;;5.82;2.00;;;;;;;;;;4988647;28;20050;-60
2023/07/15 08:11:23;;;;;;;4.47;2.13;;;;;;;;;;4988271;28;20078;-61
2023/07/15 08:13:49;;;;;;;6.43;1.90;;;;;;;;;;4988524;28;20565;-60
2023/07/15 08:16:34;;;;;;;4.28;2.33;;;;;;;;;;4988585;28;20492;-60
2023/07/15 08:19:00;;;;;;;5.93;2.00;;;;;;;;;;4990832;28;20483;-60
2023/07/15 08:21:27;;;;;;;5.13;1.90;;;;;;;;;;4993002;28;20056;-60
2023/07/15 08:23:56;;;;;;;4.35;1.95;;;;;;;;;;4992107;28;20054;-60
2023/07/15 08:26:23;;;;;;;4.30;2.20;;;;;;;;;;4992825;28;20125;-60
2023/07/15 08:28:49;;;;;;;6.25;2.60;;;;;;;;;;4992228;28;20117;-60
2023/07/15 08:31:15;;;;;;;4.07;2.30;;;;;;;;;;4992554;28;20042;-60
2023/07/15 08:33:42;;;;;;;5.32;2.35;;;;;;;;;;4992463;28;20053;-60
2023/07/15 08:36:08;;;;;;;5.22;2.42;;;;;;;;;;4991738;28;20050;-60
2023/07/15 08:38:34;;;;;;;5.68;2.25;;;;;;;;;;4992175;28;20500;-60
2023/07/15 08:41:01;;;;;;;7.22;2.63;;;;;;;;;;4992066;28;20050;-61
2023/07/15 08:43:30;;;;;;;3.67;2.08;;;;;;;;;;4992437;28;20042;-61
2023/07/15 08:45:59;;;;;;;7.13;2.35;;;;;;;;;;4991982;28;20050;-60
2023/07/15 08:48:25;;;;;;;4.00;2.10;;;;;;;;;;4992205;28;20062;-61
2023/07/15 08:50:52;;;;;;;3.58;1.55;;;;;;;;;;4991461;28;20102;-60
2023/07/15 08:53:22;;;;;;;3.88;1.83;;;;;;;;;;4991907;28;20046;-60
2023/07/15 08:55:48;;;;;;;6.82;1.90;;;;;;;;;;4991817;28;20445;-60
2023/07/15 08:58:15;;;;;;;5.18;1.77;;;;;;;;;;4991899;28;20052;-61
2023/07/15 09:00:41;;;;;;;4.43;1.88;;;;;;;;;;4991455;28;20493;-60
2023/07/15 09:03:07;;;;;;;3.88;2.08;;;;;;;;;;4991929;28;20050;-60
2023/07/15 09:05:33;;;;;;;4.35;2.05;;;;;;;;;;4992155;28;20427;-60
2023/07/15 09:07:59;;;;;;;2.97;1.65;;;;;;;;;;4991416;28;20042;-60
2023/07/15 09:10:28;;;;;;;2.75;1.60;;;;;;;;;;4991897;28;20551;-60
2023/07/15 09:12:55;;;;;;;3.50;1.55;;;;;;;;;;4991985;28;20138;-60
2023/07/15 09:15:21;;;;;;;3.35;1.92;;;;;;;;;;4991775;28;20049;-60
2023/07/15 09:17:53;;;;;;;4.38;1.98;;;;;;;;;;4991849;28;20117;-60
2023/07/15 09:20:20;;;;;;;3.75;1.38;;;;;;;;;;4991948;28;20103;-60
2023/07/15 09:22:52;;;;;;;4.10;1.45;;;;;;;;;;4991634;28;20615;-60
2023/07/15 09:25:21;;;;;;;2.30;1.30;;;;;;;;;;4991568;28;20042;-60
2023/07/15 09:27:47;;;;;;;3.63;1.40;;;;;;;;;;4990872;28;20050;-60
2023/07/15 09:30:13;;;;;;;4.93;1.58;;;;;;;;;;4991434;28;20097;-61
2023/07/15 09:32:39;;;;;;;3.75;1.73;;;;;;;;;;4991627;28;20046;-60
2023/07/15 09:35:05;;;;;;;4.97;2.10;;;;;;;;;;4991149;28;20083;-60
2023/07/15 09:37:32;;;;;;;3.05;1.30;;;;;;;;;;4990899;28;20080;-60
2023/07/15 09:40:16;;;;;;;4.43;1.80;;;;;;;;;;4991113;28;20054;-60
2023/07/15 09:42:51;;;;;;;3.83;1.50;;;;;;;;;;4991141;28;20144;-60
2023/07/15 09:45:37;;;;;;;3.70;1.45;;;;;;;;;;4991289;28;20050;-60
2023/07/15 09:48:13;;;;;;;3.50;1.40;;;;;;;;;;4990641;28;20050;-63
2023/07/15 09:50:41;;;;;;;2.13;1.40;;;;;;;;;;4990455;28;20054;-60
2023/07/15 09:53:07;;;;;;;6.07;1.70;;;;;;;;;;4990822;28;20081;-61
2023/07/15 09:55:36;;;;;;;2.60;1.20;;;;;;;;;;4990674;28;20054;-60
2023/07/15 09:58:02;;;;;;;3.05;1.33;;;;;;;;;;4990925;28;20058;-61
2023/07/15 10:00:29;;;;;;;2.92;1.13;;;;;;;;;;4990990;28;20042;-61
2023/07/15 10:02:59;;;;;;;3.35;1.55;;;;;;;;;;4991009;28;20077;-60
2023/07/15 10:05:29;;;;;;;1.92;1.10;;;;;;;;;;4990788;28;20050;-60
2023/07/15 10:07:56;;;;;;;7.43;1.25;;;;;;;;;;4990663;28;20042;-61
2023/07/15 10:10:22;;;;;;;1.92;1.25;;;;;;;;;;4990657;28;20057;-60
2023/07/15 10:12:49;;;;;;;5.10;1.38;;;;;;;;;;4990828;28;20172;-60
2023/07/15 10:15:16;;;;;;;3.10;1.17;;;;;;;;;;4990798;28;20050;-60
2023/07/15 10:17:42;;;;;;;4.15;1.30;;;;;;;;;;4990659;28;20043;-61
2023/07/15 10:20:12;;;;;;;1.77;1.20;;;;;;;;;;4990222;28;20137;-61
2023/07/15 10:22:39;;;;;;;3.60;1.45;;;;;;;;;;4990242;28;20129;-60
2023/07/15 10:25:08;;;;;;;4.03;1.25;;;;;;;;;;4990565;28;20057;-59
2023/07/15 10:27:34;;;;;;;3.97;1.58;;;;;;;;;;4990389;28;20078;-59
2023/07/15 10:30:20;;;;;;;3.53;1.25;;;;;;;;;;4990346;28;20519;-59
2023/07/15 10:33:01;;;;;;;2.30;1.00;;;;;;;;;;4990239;28;20054;-60
2023/07/15 10:35:27;;;;;;;3.13;1.30;;;;;;;;;;4989881;28;20042;-59
2023/07/15 10:37:55;;;;;;;3.03;1.17;;;;;;;;;;4989759;28;20057;-59
2023/07/15 10:40:39;;;;;;;3.50;1.50;;;;;;;;;;4990144;28;20046;-59
2023/07/15 10:43:06;;;;;;;1.90;1.10;;;;;;;;;;4989736;28;20455;-59
2023/07/15 10:45:42;;;;;;;2.22;0.90;;;;;;;;;;4990265;28;20046;-60
2023/07/15 10:48:08;;;;;;;5.22;1.23;;;;;;;;;;4989856;28;20080;-60
2023/07/15 10:50:36;;;;;;;5.05;1.30;;;;;;;;;;4989658;28;20138;-60
2023/07/15 10:53:22;;;;;;;3.67;1.10;;;;;;;;;;4989469;28;20074;-60
2023/07/15 10:55:55;;;;;;;2.90;1.55;;;;;;;;;;4989419;28;20050;-60
2023/07/15 10:58:21;;;;;;;3.03;1.67;;;;;;;;;;4989615;28;20089;-60
2023/07/15 11:00:47;;;;;;;5.65;1.73;;;;;;;;;;4989969;28;20072;-61
2023/07/15 11:03:13;;;;;;;3.83;1.45;;;;;;;;;;4989927;28;20054;-60
2023/07/15 11:05:39;;;;;;;3.47;1.38;;;;;;;;;;4989454;28;20520;-60
2023/07/15 11:08:06;;;;;;;3.58;1.50;;;;;;;;;;4989068;28;20042;-60
2023/07/15 11:10:32;;;;;;;3.50;1.25;;;;;;;;;;4989715;28;20046;-60
2023/07/15 11:13:10;;;;;;;3.40;1.20;;;;;;;;;;4989502;28;20137;-60
2023/07/15 11:15:36;;;;;;;3.55;1.20;;;;;;;;;;4989146;28;20051;-60
2023/07/15 11:18:02;;;;;;;2.95;1.50;;;;;;;;;;4989580;28;20412;-61
2023/07/15 11:20:28;;;;;;;5.53;1.55;;;;;;;;;;4989336;28;20073;-60
2023/07/15 11:22:54;;;;;;;4.05;1.55;;;;;;;;;;4989848;28;20094;-60
2023/07/15 11:25:21;;;;;;;6.30;1.55;;;;;;;;;;4988620;28;20504;-61
2023/07/15 11:27:47;;;;;;;2.10;1.10;;;;;;;;;;4989529;28;20137;-61
2023/07/15 11:30:13;;;;;;;4.82;1.20;;;;;;;;;;4989270;28;20165;-60
2023/07/15 11:32:39;;;;;;;6.93;1.70;;;;;;;;;;4989509;28;20449;-60
2023/07/15 11:35:12;;;;;;;2.70;1.20;;;;;;;;;;4988378;28;20133;-60
2023/07/15 11:37:48;;;;;;;3.45;1.38;;;;;;;;;;4989298;28;20485;-61
2023/07/15 11:40:17;;;;;;;4.35;1.17;;;;;;;;;;4988863;28;20508;-60
2023/07/15 11:42:44;;;;;;;2.28;1.30;;;;;;;;;;4989172;28;20054;-60
2023/07/15 11:45:10;;;;;;;4.40;1.50;;;;;;;;;;4988529;28;20050;-60
2023/07/15 11:47:36;;;;;;;6.15;1.77;;;;;;;;;;4988976;28;20149;-60
2023/07/15 11:50:03;;;;;;;3.10;1.42;;;;;;;;;;4988488;28;20137;-60
2023/07/15 11:52:39;;;;;;;3.58;1.40;;;;;;;;;;4988547;28;20154;-60
2023/07/15 11:55:05;;;;;;;6.05;1.50;;;;;;;;;;4988716;28;20054;-60
2023/07/15 11:57:31;;;;;;;5.72;1.48;;;;;;;;;;4988528;28;20047;-60
2023/07/15 11:59:57;;;;;;;3.75;1.60;;;;;;;;;;4988686;28;20415;-60
2023/07/15 12:02:23;;;;;;;4.43;1.63;;;;;;;;;;4989080;28;20100;-60
2023/07/15 12:04:49;;;;;;;2.78;1.40;;;;;;;;;;4988574;28;20500;-60
2023/07/15 12:07:15;;;;;;;3.97;1.50;;;;;;;;;;4988733;28;20065;-60
2023/07/15 12:09:43;;;;;;;3.10;1.42;;;;;;;;;;4989003;28;20524;-60
2023/07/15 12:12:09;;;;;;;3.88;1.50;;;;;;;;;;4988283;28;20150;-60
2023/07/15 12:14:36;;;;;;;4.40;1.77;;;;;;;;;;4988834;28;20192;-60
2023/07/15 12:17:03;;;;;;;8.98;2.00;;;;;;;;;;4988859;28;20054;-61
2023/07/15 12:19:31;;;;;;;3.53;1.55;;;;;;;;;;4988737;28;20065;-60
2023/07/15 12:21:57;;;;;;;2.85;1.42;;;;;;;;;;4988595;28;20054;-60
2023/07/15 12:24:23;;;;;;;3.63;1.48;;;;;;;;;;4988638;28;20065;-60
2023/07/15 12:26:49;;;;;;;3.38;1.40;;;;;;;;;;4988224;28;20043;-60
2023/07/15 12:29:15;;;;;;;1.90;1.10;;;;;;;;;;4988874;28;20911;-60
2023/07/15 12:31:41;;;;;;;4.55;1.75;;;;;;;;;;4988790;28;20122;-60
2023/07/15 12:34:07;;;;;;;8.40;2.15;;;;;;;;;;4988365;28;20591;-61
2023/07/15 12:36:33;;;;;;;4.53;1.40;;;;;;;;;;4988584;28;20038;-60
2023/07/15 12:38:59;;;;;;;2.67;1.38;;;;;;;;;;4988137;28;20042;-60
2023/07/15 12:41:25;;;;;;;2.70;1.45;;;;;;;;;;4988567;28;20050;-60
2023/07/15 12:43:51;;;;;;;4.75;1.80;;;;;;;;;;4988441;28;20061;-60
2023/07/15 12:46:17;;;;;;;4.00;1.30;;;;;;;;;;4988231;28;20412;-60
2023/07/15 12:48:43;;;;;;;5.32;1.30;;;;;;;;;;4988178;28;20050;-61
2023/07/15 12:51:09;;;;;;;3.50;1.27;;;;;;;;;;4988301;28;20046;-60
2023/07/15 12:53:37;;;;;;;3.85;1.70;;;;;;;;;;4988387;28;20079;-60
2023/07/15 12:56:03;;;;;;;4.53;1.52;;;;;;;;;;4987853;28;20058;-60
2023/07/15 12:58:29;;;;;;;3.72;1.38;;;;;;;;;;4988359;28;20042;-60
2023/07/15 13:00:56;;;;;;;3.30;1.50;;;;;;;;;;4988089;28;20038;-60
2023/07/15 13:03:22;;;;;;;4.07;1.50;;;;;;;;;;4987989;28;20046;-60
2023/07/15 13:05:48;;;;;;;3.13;1.42;;;;;;;;;;4991359;28;20405;-60
2023/07/15 13:08:15;;;;;;;5.38;2.08;;;;;;;;;;4991504;28;20069;-60
2023/07/15 13:10:43;;;;;;;2.88;1.38;;;;;;;;;;4992003;28;20048;-60
2023/07/15 13:13:09;;;;;;;5.05;1.52;;;;;;;;;;4991818;28;20050;-60
2023/07/15 13:15:35;;;;;;;4.03;1.50;;;;;;;;;;4991480;28;20092;-61
2023/07/15 13:18:01;;;;;;;5.32;1.48;;;;;;;;;;4991738;28;20100;-60
2023/07/15 13:20:27;;;;;;;3.67;1.50;;;;;;;;;;4992001;28;20058;-60
2023/07/15 13:22:53;;;;;;;3.03;1.30;;;;;;;;;;4991891;28;20041;-61
2023/07/15 13:25:19;;;;;;;6.75;1.48;;;;;;;;;;4973923;28;20104;-60
2023/07/15 13:27:45;;;;;;;3.80;1.55;;;;;;;;;;4990932;28;20057;-60
2023/07/15 13:30:11;;;;;;;2.13;1.10;;;;;;;;;;4991417;28;20047;-60
2023/07/15 13:32:37;;;;;;;2.53;1.45;;;;;;;;;;4991421;28;20108;-61
2023/07/15 13:35:04;;;;;;;4.75;1.63;;;;;;;;;;4974224;28;20539;-61
2023/07/15 13:37:30;;;;;;;6.72;1.75;;;;;;;;;;4990542;28;20038;-60
2023/07/15 13:39:56;;;;;;;4.13;1.40;;;;;;;;;;4973915;28;20042;-60
2023/07/15 13:42:22;;;;;;;2.38;1.42;;;;;;;;;;4991096;28;20057;-60
2023/07/15 13:44:49;;;;;;;2.33;1.20;;;;;;;;;;4990668;28;20058;-60
2023/07/15 13:47:15;;;;;;;2.45;1.15;;;;;;;;;;4991251;28;20096;-61
2023/07/15 13:49:41;;;;;;;4.22;1.70;;;;;;;;;;4973490;28;20129;-60
2023/07/15 13:52:07;;;;;;;2.60;1.30;;;;;;;;;;4990356;28;20053;-60
2023/07/15 13:54:33;;;;;;;3.25;1.27;;;;;;;;;;4991041;28;20058;-60
2023/07/15 13:56:59;;;;;;;3.05;1.40;;;;;;;;;;4990879;28;20054;-60
2023/07/15 13:59:25;;;;;;;2.45;1.30;;;;;;;;;;4990926;28;20579;-60
2023/07/15 14:01:51;;;;;;;3.80;1.25;;;;;;;;;;4990348;28;20038;-60
2023/07/15 14:04:17;;;;;;;2.75;1.30;;;;;;;;;;4990972;28;20042;-60
2023/07/15 14:06:46;;;;;;;3.20;1.35;;;;;;;;;;4990520;28;20077;-60
2023/07/15 14:09:12;;;;;;;3.15;1.60;;;;;;;;;;4990781;28;20046;-60
2023/07/15 14:11:39;;;;;;;3.72;1.50;;;;;;;;;;4990797;28;20053;-60
2023/07/15 14:14:05;;;;;;;4.22;1.58;;;;;;;;;;4990253;28;20104;-60
2023/07/15 14:16:31;;;;;;;2.78;1.40;;;;;;;;;;4989825;28;20042;-60
2023/07/15 14:18:57;;;;;;;3.78;1.67;;;;;;;;;;4990587;28;20536;-61
2023/07/15 14:21:23;;;;;;;2.47;1.45;;;;;;;;;;4990557;28;20157;-60
2023/07/15 14:23:49;;;;;;;2.83;1.50;;;;;;;;;;4990484;28;20587;-61
2023/07/15 14:26:16;;;;;;;3.97;1.42;;;;;;;;;;4989880;28;20504;-61
2023/07/15 14:28:43;;;;;;;2.95;1.55;;;;;;;;;;4990183;28;20070;-60
2023/07/15 14:31:09;;;;;;;2.42;1.48;;;;;;;;;;4989717;28;20056;-60
2023/07/15 14:33:35;;;;;;;7.65;1.70;;;;;;;;;;4989362;28;20054;-60
2023/07/15 14:36:01;;;;;;;4.00;1.90;;;;;;;;;;4989949;28;20042;-60
2023/07/15 14:38:27;;;;;;;4.05;1.70;;;;;;;;;;4990153;28;20053;-61
2023/07/15 14:40:53;;;;;;;2.85;1.60;;;;;;;;;;4990067;28;20416;-61